Time;durP1;ratioP1;P1;durP2;ratioP2;P2;SDS_P1;SDS_P2;PMS_P1;PMS_P2;Temp;Humidity;BMP_temperature;BMP_pressure;BME280_temperature;BME280_humidity;BME280_pressure;Samples;Min_cycle;Max_cycle;Signal;HPM_P1;HPM_P2
2023/05/07 18:38:49;;;;;;;4.73;3.00;;;11.60;99.90;;;;;;6095141;22;1234388;-94
2023/05/07 18:41:15;;;;;;;4.77;3.10;;;11.40;99.90;;;;;;6157336;23;20194;-92
2023/05/07 18:43:42;;;;;;;5.97;3.37;;;11.30;99.90;;;;;;6157165;23;20260;-93
2023/05/07 18:46:09;;;;;;;3.47;3.17;;;11.10;99.90;;;;;;6156721;23;20168;-93
2023/05/07 18:48:36;;;;;;;4.60;3.10;;;11.00;99.90;;;;;;6156330;23;20690;-93
2023/05/07 18:51:03;;;;;;;5.60;3.20;;;10.80;99.90;;;;;;6157230;23;20531;-92
2023/05/07 18:53:30;;;;;;;6.87;3.20;;;10.70;99.90;;;;;;6158811;23;20179;-94
2023/05/07 18:55:59;;;;;;;3.50;3.20;;;10.60;1.00;;;;;;6158106;23;20198;-91
2023/05/07 18:58:25;;;;;;;4.30;3.47;;;10.50;1.00;;;;;;6157307;23;20166;-92
2023/05/07 19:00:52;;;;;;;3.50;3.17;;;10.40;1.00;;;;;;6157305;23;20195;-92
2023/05/07 19:03:19;;;;;;;5.17;3.30;;;10.30;1.00;;;;;;6156727;23;20195;-92
2023/05/07 19:05:46;;;;;;;3.50;3.20;;;10.20;1.00;;;;;;6157154;23;20673;-92
2023/05/07 19:08:13;;;;;;;3.87;3.47;;;10.10;1.00;;;;;;6157395;23;20637;-93
2023/05/07 19:10:39;;;;;;;4.13;3.50;;;10.10;1.00;;;;;;6157117;23;20625;-91
2023/05/07 19:13:08;;;;;;;5.93;3.40;;;10.00;1.00;;;;;;6157081;23;20175;-91
2023/05/07 19:15:34;;;;;;;3.50;3.20;;;9.90;1.00;;;;;;6157144;23;20254;-91
2023/05/07 19:18:01;;;;;;;4.67;3.80;;;9.80;1.00;;;;;;6157116;23;20731;-91
2023/05/07 19:20:28;;;;;;;6.33;3.60;;;9.80;1.00;;;;;;6156592;23;20190;-92
2023/05/07 19:22:55;;;;;;;4.17;3.67;;;9.80;1.00;;;;;;6157317;23;20182;-91
2023/05/07 19:25:22;;;;;;;6.70;3.87;;;9.70;1.00;;;;;;6157393;23;20252;-91
2023/05/07 19:27:49;;;;;;;5.73;3.80;;;9.70;1.00;;;;;;6156924;23;20175;-90
2023/05/07 19:30:17;;;;;;;4.53;3.90;;;9.70;1.00;;;;;;6156201;23;20174;-91
2023/05/07 19:32:44;;;;;;;5.30;3.67;;;9.60;1.00;;;;;;6156798;23;20180;-92
2023/05/07 19:35:11;;;;;;;4.63;3.70;;;9.60;1.00;;;;;;6156817;23;20178;-91
2023/05/07 19:37:38;;;;;;;4.43;3.90;;;9.40;1.00;;;;;;6156581;23;20194;-92
2023/05/07 19:40:07;;;;;;;4.70;4.13;;;9.30;1.00;;;;;;6156314;23;20276;-92
2023/05/07 19:42:34;;;;;;;4.87;3.93;;;9.30;1.00;;;;;;6156402;23;20632;-91
2023/05/07 19:45:02;;;;;;;4.73;4.07;;;9.10;1.00;;;;;;6155578;23;20327;-92
2023/05/07 19:47:31;;;;;;;5.03;4.13;;;9.00;48.60;;;;;;6156875;23;20595;-91
2023/05/07 19:49:57;;;;;;;5.13;3.80;;;8.90;99.90;;;;;;6156753;23;20173;-92
2023/05/07 19:52:24;;;;;;;4.43;3.77;;;8.80;99.90;;;;;;6156591;23;20179;-91
2023/05/07 19:54:51;;;;;;;7.77;4.10;;;8.80;99.90;;;;;;6156204;23;20664;-92
2023/05/07 19:57:18;;;;;;;4.13;3.73;;;8.70;99.90;;;;;;6156685;23;20176;-91
2023/05/07 19:59:46;;;;;;;4.63;3.90;;;8.70;99.90;;;;;;6157386;23;20280;-92
2023/05/07 20:02:14;;;;;;;5.27;4.17;;;8.60;99.90;;;;;;6157989;23;20200;-91
2023/05/07 20:04:42;;;;;;;5.50;3.83;;;8.60;99.90;;;;;;6157230;23;20202;-91
2023/05/07 20:07:09;;;;;;;7.80;4.70;;;8.60;99.90;;;;;;6157418;23;20188;-92
2023/05/07 20:09:36;;;;;;;6.47;4.30;;;8.60;99.90;;;;;;6157378;23;20178;-90
2023/05/07 20:12:02;;;;;;;5.33;4.47;;;8.60;99.90;;;;;;6157349;23;20244;-90
2023/05/07 20:14:29;;;;;;;4.60;4.20;;;8.60;99.90;;;;;;6158038;23;20191;-91
2023/05/07 20:16:56;;;;;;;6.80;4.20;;;8.50;99.90;;;;;;6158496;23;20225;-91
2023/05/07 20:19:23;;;;;;;7.10;4.40;;;8.50;99.90;;;;;;6158224;23;20204;-90
2023/05/07 20:21:51;;;;;;;5.40;4.17;;;8.50;99.90;;;;;;6158695;23;20183;-90
2023/05/07 20:24:18;;;;;;;6.10;4.43;;;8.50;99.90;;;;;;6157943;23;20190;-90
2023/05/07 20:26:45;;;;;;;5.17;4.37;;;8.50;99.90;;;;;;6158372;23;20534;-90
2023/05/07 20:29:12;;;;;;;5.17;4.00;;;8.40;99.90;;;;;;6157624;23;20175;-90
2023/05/07 20:31:40;;;;;;;4.57;4.13;;;8.40;1.00;;;;;;6158098;23;20173;-90
2023/05/07 20:34:07;;;;;;;4.90;4.10;;;8.40;99.90;;;;;;6157579;23;20254;-90
2023/05/07 20:36:34;;;;;;;6.73;4.53;;;8.40;99.90;;;;;;6158200;23;20181;-91
2023/05/07 20:39:03;;;;;;;11.93;7.70;;;8.40;99.90;;;;;;6157909;23;20201;-90
2023/05/07 20:41:29;;;;;;;13.67;10.37;;;8.40;99.90;;;;;;6158015;23;20203;-91
2023/05/07 20:43:56;;;;;;;16.17;10.57;;;8.30;99.90;;;;;;6158497;23;20251;-91
